sensor_id;sensor_type;location;lat;lon;timestamp;temperature;humidity
10660;DHT22;5378;53.206;13.316;2024-01-06T00:00:05;-0.10;99.90
10660;DHT22;5378;53.206;13.316;2024-01-06T00:02:56;-0.10;99.90
10660;DHT22;5378;53.206;13.316;2024-01-06T00:05:43;-0.10;99.90
10660;DHT22;5378;53.206;13.316;2024-01-06T00:08:30;-0.20;99.90
10660;DHT22;5378;53.206;13.316;2024-01-06T00:11:17;-0.20;99.90
10660;DHT22;5378;53.206;13.316;2024-01-06T00:14:05;-0.10;99.90
10660;DHT22;5378;53.206;13.316;2024-01-06T00:16:52;-0.20;99.90
10660;DHT22;5378;53.206;13.316;2024-01-06T00:19:39;-0.20;99.90
10660;DHT22;5378;53.206;13.316;2024-01-06T00:22:26;-0.30;99.90
10660;DHT22;5378;53.206;13.316;2024-01-06T00:25:13;-0.30;99.90
10660;DHT22;5378;53.206;13.316;2024-01-06T00:28:00;-0.30;99.90
10660;DHT22;5378;53.206;13.316;2024-01-06T00:30:48;-0.30;99.90
10660;DHT22;5378;53.206;13.316;2024-01-06T00:33:35;-0.20;99.90
10660;DHT22;5378;53.206;13.316;2024-01-06T00:36:22;-0.20;99.90
10660;DHT22;5378;53.206;13.316;2024-01-06T00:39:09;-0.20;99.90
10660;DHT22;5378;53.206;13.316;2024-01-06T00:41:57;-0.20;99.90
10660;DHT22;5378;53.206;13.316;2024-01-06T00:44:43;-0.20;99.90
10660;DHT22;5378;53.206;13.316;2024-01-06T00:47:32;-0.10;99.90
10660;DHT22;5378;53.206;13.316;2024-01-06T00:50:19;-0.20;99.90
10660;DHT22;5378;53.206;13.316;2024-01-06T00:53:06;-0.20;99.90
10660;DHT22;5378;53.206;13.316;2024-01-06T00:55:53;-0.20;99.90
10660;DHT22;5378;53.206;13.316;2024-01-06T00:58:40;-0.20;99.90
10660;DHT22;5378;53.206;13.316;2024-01-06T01:01:27;-0.10;99.90
10660;DHT22;5378;53.206;13.316;2024-01-06T01:04:15;-0.20;99.90
10660;DHT22;5378;53.206;13.316;2024-01-06T01:07:02;-0.20;99.90
10660;DHT22;5378;53.206;13.316;2024-01-06T01:09:50;-0.20;99.90
10660;DHT22;5378;53.206;13.316;2024-01-06T01:12:37;-0.10;99.90
10660;DHT22;5378;53.206;13.316;2024-01-06T01:15:25;-0.10;99.90
10660;DHT22;5378;53.206;13.316;2024-01-06T01:18:12;-0.20;99.90
10660;DHT22;5378;53.206;13.316;2024-01-06T01:21:00;-0.20;99.90
10660;DHT22;5378;53.206;13.316;2024-01-06T01:23:47;-0.30;99.90
10660;DHT22;5378;53.206;13.316;2024-01-06T01:26:34;-0.30;99.90
10660;DHT22;5378;53.206;13.316;2024-01-06T01:29:21;-0.20;99.90
10660;DHT22;5378;53.206;13.316;2024-01-06T01:32:08;-0.20;99.90
10660;DHT22;5378;53.206;13.316;2024-01-06T01:34:55;-0.20;99.90
10660;DHT22;5378;53.206;13.316;2024-01-06T01:37:43;-0.20;99.90
10660;DHT22;5378;53.206;13.316;2024-01-06T01:40:31;-0.20;99.90
10660;DHT22;5378;53.206;13.316;2024-01-06T01:43:18;-0.30;99.90
10660;DHT22;5378;53.206;13.316;2024-01-06T01:46:05;-0.30;99.90
10660;DHT22;5378;53.206;13.316;2024-01-06T01:48:53;-0.30;99.90
10660;DHT22;5378;53.206;13.316;2024-01-06T01:51:41;-0.20;99.90
10660;DHT22;5378;53.206;13.316;2024-01-06T01:54:31;-0.20;99.90
10660;DHT22;5378;53.206;13.316;2024-01-06T01:57:19;-0.10;99.90
10660;DHT22;5378;53.206;13.316;2024-01-06T02:00:08;-0.10;99.90
10660;DHT22;5378;53.206;13.316;2024-01-06T02:02:59;-0.20;99.90
10660;DHT22;5378;53.206;13.316;2024-01-06T02:05:49;-0.20;99.90
10660;DHT22;5378;53.206;13.316;2024-01-06T02:08:36;-0.30;99.90
10660;DHT22;5378;53.206;13.316;2024-01-06T02:11:24;-0.20;99.90
10660;DHT22;5378;53.206;13.316;2024-01-06T02:14:11;-0.20;99.90
10660;DHT22;5378;53.206;13.316;2024-01-06T02:16:58;-0.20;99.90
10660;DHT22;5378;53.206;13.316;2024-01-06T02:19:46;-0.20;99.90
10660;DHT22;5378;53.206;13.316;2024-01-06T02:22:35;-0.10;99.90
10660;DHT22;5378;53.206;13.316;2024-01-06T02:25:23;-0.10;99.90
10660;DHT22;5378;53.206;13.316;2024-01-06T02:28:10;-0.20;99.90
10660;DHT22;5378;53.206;13.316;2024-01-06T02:30:57;-0.40;99.90
10660;DHT22;5378;53.206;13.316;2024-01-06T02:33:44;-0.40;99.90
10660;DHT22;5378;53.206;13.316;2024-01-06T02:36:31;-0.30;99.90
10660;DHT22;5378;53.206;13.316;2024-01-06T02:39:19;-0.30;99.90
10660;DHT22;5378;53.206;13.316;2024-01-06T02:42:06;-0.40;99.90
10660;DHT22;5378;53.206;13.316;2024-01-06T02:44:53;-0.50;99.90
10660;DHT22;5378;53.206;13.316;2024-01-06T02:47:40;-0.50;99.90
10660;DHT22;5378;53.206;13.316;2024-01-06T02:50:27;-0.40;99.90
10660;DHT22;5378;53.206;13.316;2024-01-06T02:53:14;-0.50;99.90
10660;DHT22;5378;53.206;13.316;2024-01-06T02:56:03;-0.50;99.90
10660;DHT22;5378;53.206;13.316;2024-01-06T02:58:50;-0.40;99.90
10660;DHT22;5378;53.206;13.316;2024-01-06T03:01:37;-0.40;99.90
10660;DHT22;5378;53.206;13.316;2024-01-06T03:04:24;-0.40;99.90
10660;DHT22;5378;53.206;13.316;2024-01-06T03:07:11;-0.50;99.90
10660;DHT22;5378;53.206;13.316;2024-01-06T03:09:58;-0.40;99.90
10660;DHT22;5378;53.206;13.316;2024-01-06T03:12:46;-0.30;99.90
10660;DHT22;5378;53.206;13.316;2024-01-06T03:15:33;-0.40;99.90
10660;DHT22;5378;53.206;13.316;2024-01-06T03:18:20;-0.40;99.90
10660;DHT22;5378;53.206;13.316;2024-01-06T03:21:16;-0.30;99.90
10660;DHT22;5378;53.206;13.316;2024-01-06T03:24:04;-0.40;99.90
10660;DHT22;5378;53.206;13.316;2024-01-06T03:26:52;-0.50;99.90
10660;DHT22;5378;53.206;13.316;2024-01-06T03:29:40;-0.50;99.90
10660;DHT22;5378;53.206;13.316;2024-01-06T03:32:27;-0.50;99.90
10660;DHT22;5378;53.206;13.316;2024-01-06T03:35:15;-0.60;99.90
10660;DHT22;5378;53.206;13.316;2024-01-06T03:38:02;-0.50;99.90
10660;DHT22;5378;53.206;13.316;2024-01-06T03:40:49;-0.60;99.90
10660;DHT22;5378;53.206;13.316;2024-01-06T03:43:36;-0.60;99.90
10660;DHT22;5378;53.206;13.316;2024-01-06T03:46:25;-0.60;99.90
10660;DHT22;5378;53.206;13.316;2024-01-06T03:49:12;-0.70;99.90
10660;DHT22;5378;53.206;13.316;2024-01-06T03:51:59;-0.60;99.90
10660;DHT22;5378;53.206;13.316;2024-01-06T03:54:46;-0.60;99.90
10660;DHT22;5378;53.206;13.316;2024-01-06T03:57:33;-0.70;99.90
10660;DHT22;5378;53.206;13.316;2024-01-06T04:00:20;-0.70;99.90
10660;DHT22;5378;53.206;13.316;2024-01-06T04:03:08;-0.80;99.90
10660;DHT22;5378;53.206;13.316;2024-01-06T04:05:55;-0.80;99.90
10660;DHT22;5378;53.206;13.316;2024-01-06T04:08:42;-0.70;99.90
10660;DHT22;5378;53.206;13.316;2024-01-06T04:11:29;-0.70;99.90
10660;DHT22;5378;53.206;13.316;2024-01-06T04:14:17;-0.60;99.90
10660;DHT22;5378;53.206;13.316;2024-01-06T04:17:04;-0.60;99.90
10660;DHT22;5378;53.206;13.316;2024-01-06T04:19:52;-0.60;99.90
10660;DHT22;5378;53.206;13.316;2024-01-06T04:22:39;-0.70;99.90
10660;DHT22;5378;53.206;13.316;2024-01-06T04:25:26;-0.70;99.90
10660;DHT22;5378;53.206;13.316;2024-01-06T04:28:13;-0.80;99.90
10660;DHT22;5378;53.206;13.316;2024-01-06T04:31:00;-0.80;99.90
10660;DHT22;5378;53.206;13.316;2024-01-06T04:33:48;-0.80;99.90
10660;DHT22;5378;53.206;13.316;2024-01-06T04:36:36;-0.90;99.90
10660;DHT22;5378;53.206;13.316;2024-01-06T04:39:24;-0.90;99.90
10660;DHT22;5378;53.206;13.316;2024-01-06T04:42:11;-1.00;99.90
10660;DHT22;5378;53.206;13.316;2024-01-06T04:44:59;-0.90;99.90
10660;DHT22;5378;53.206;13.316;2024-01-06T04:47:46;-0.70;99.90
10660;DHT22;5378;53.206;13.316;2024-01-06T04:50:33;-0.60;99.90
10660;DHT22;5378;53.206;13.316;2024-01-06T04:53:21;-0.80;99.90
10660;DHT22;5378;53.206;13.316;2024-01-06T04:56:08;-1.00;99.90
10660;DHT22;5378;53.206;13.316;2024-01-06T04:58:55;-1.00;99.90
10660;DHT22;5378;53.206;13.316;2024-01-06T05:01:43;-1.00;99.90
10660;DHT22;5378;53.206;13.316;2024-01-06T05:04:30;-1.00;99.90
10660;DHT22;5378;53.206;13.316;2024-01-06T05:07:19;-1.00;99.90
10660;DHT22;5378;53.206;13.316;2024-01-06T05:10:08;-0.80;99.90
10660;DHT22;5378;53.206;13.316;2024-01-06T05:12:55;-0.80;99.90
10660;DHT22;5378;53.206;13.316;2024-01-06T05:15:42;-1.00;99.90
10660;DHT22;5378;53.206;13.316;2024-01-06T05:18:29;-1.00;99.90
10660;DHT22;5378;53.206;13.316;2024-01-06T05:21:16;-0.90;99.90
10660;DHT22;5378;53.206;13.316;2024-01-06T05:24:05;-0.90;99.90
10660;DHT22;5378;53.206;13.316;2024-01-06T05:26:53;-0.80;99.90
10660;DHT22;5378;53.206;13.316;2024-01-06T05:29:41;-0.70;99.90
10660;DHT22;5378;53.206;13.316;2024-01-06T05:32:27;-0.80;99.90
10660;DHT22;5378;53.206;13.316;2024-01-06T05:35:15;-0.90;99.90
10660;DHT22;5378;53.206;13.316;2024-01-06T05:38:03;-1.10;99.90
10660;DHT22;5378;53.206;13.316;2024-01-06T05:40:50;-1.00;99.90
10660;DHT22;5378;53.206;13.316;2024-01-06T05:43:38;-1.00;99.90
10660;DHT22;5378;53.206;13.316;2024-01-06T05:46:25;-1.00;99.90
10660;DHT22;5378;53.206;13.316;2024-01-06T05:49:12;-1.00;99.90
10660;DHT22;5378;53.206;13.316;2024-01-06T05:51:59;-1.00;99.90
10660;DHT22;5378;53.206;13.316;2024-01-06T05:54:46;-1.00;99.90
10660;DHT22;5378;53.206;13.316;2024-01-06T05:57:33;-1.00;99.90
10660;DHT22;5378;53.206;13.316;2024-01-06T06:00:22;-1.10;99.90
10660;DHT22;5378;53.206;13.316;2024-01-06T06:03:09;-1.00;99.90
10660;DHT22;5378;53.206;13.316;2024-01-06T06:05:56;-0.90;99.90
10660;DHT22;5378;53.206;13.316;2024-01-06T06:08:44;-0.90;99.90
10660;DHT22;5378;53.206;13.316;2024-01-06T06:11:31;-1.10;99.90
10660;DHT22;5378;53.206;13.316;2024-01-06T06:14:18;-1.20;99.90
10660;DHT22;5378;53.206;13.316;2024-01-06T06:17:07;-1.10;99.90
10660;DHT22;5378;53.206;13.316;2024-01-06T06:19:54;-1.10;99.90
10660;DHT22;5378;53.206;13.316;2024-01-06T06:22:42;-1.10;99.90
10660;DHT22;5378;53.206;13.316;2024-01-06T06:25:30;-1.20;99.90
10660;DHT22;5378;53.206;13.316;2024-01-06T06:28:17;-1.20;99.90
10660;DHT22;5378;53.206;13.316;2024-01-06T06:31:04;-1.10;99.90
10660;DHT22;5378;53.206;13.316;2024-01-06T06:33:52;-1.00;99.90
10660;DHT22;5378;53.206;13.316;2024-01-06T06:36:39;-1.10;99.90
10660;DHT22;5378;53.206;13.316;2024-01-06T06:39:26;-1.10;99.90
10660;DHT22;5378;53.206;13.316;2024-01-06T06:42:13;-1.10;99.90
10660;DHT22;5378;53.206;13.316;2024-01-06T06:45:00;-1.10;99.90
10660;DHT22;5378;53.206;13.316;2024-01-06T06:47:47;-1.00;99.90
10660;DHT22;5378;53.206;13.316;2024-01-06T06:50:36;-1.10;99.90
10660;DHT22;5378;53.206;13.316;2024-01-06T06:53:24;-1.10;99.90
10660;DHT22;5378;53.206;13.316;2024-01-06T06:56:11;-1.10;99.90
10660;DHT22;5378;53.206;13.316;2024-01-06T06:59:00;-1.00;99.90
10660;DHT22;5378;53.206;13.316;2024-01-06T07:01:48;-0.90;99.90
10660;DHT22;5378;53.206;13.316;2024-01-06T07:04:35;-0.90;99.90
10660;DHT22;5378;53.206;13.316;2024-01-06T07:07:23;-1.00;99.90
10660;DHT22;5378;53.206;13.316;2024-01-06T07:10:10;-1.00;99.90
10660;DHT22;5378;53.206;13.316;2024-01-06T07:12:57;-1.00;99.90
10660;DHT22;5378;53.206;13.316;2024-01-06T07:15:44;-1.00;99.90
10660;DHT22;5378;53.206;13.316;2024-01-06T07:18:32;-1.00;99.90
10660;DHT22;5378;53.206;13.316;2024-01-06T07:21:19;-1.00;99.90
10660;DHT22;5378;53.206;13.316;2024-01-06T07:24:07;-1.00;99.90
10660;DHT22;5378;53.206;13.316;2024-01-06T07:26:54;-1.00;99.90
10660;DHT22;5378;53.206;13.316;2024-01-06T07:29:41;-1.10;99.90
10660;DHT22;5378;53.206;13.316;2024-01-06T07:32:28;-1.00;99.90
10660;DHT22;5378;53.206;13.316;2024-01-06T07:35:15;-1.10;99.90
10660;DHT22;5378;53.206;13.316;2024-01-06T07:38:03;-1.10;99.90
10660;DHT22;5378;53.206;13.316;2024-01-06T07:40:52;-1.10;99.90
10660;DHT22;5378;53.206;13.316;2024-01-06T07:43:41;-1.10;99.90
10660;DHT22;5378;53.206;13.316;2024-01-06T07:46:28;-1.00;99.90
10660;DHT22;5378;53.206;13.316;2024-01-06T07:49:17;-1.00;99.90
10660;DHT22;5378;53.206;13.316;2024-01-06T07:52:04;-1.00;99.90
10660;DHT22;5378;53.206;13.316;2024-01-06T07:54:51;-1.00;99.90
10660;DHT22;5378;53.206;13.316;2024-01-06T07:57:40;-1.00;99.90
10660;DHT22;5378;53.206;13.316;2024-01-06T08:00:27;-1.10;99.90
10660;DHT22;5378;53.206;13.316;2024-01-06T08:03:14;-1.10;99.90
10660;DHT22;5378;53.206;13.316;2024-01-06T08:06:02;-1.10;99.90
10660;DHT22;5378;53.206;13.316;2024-01-06T08:08:50;-1.00;99.90
10660;DHT22;5378;53.206;13.316;2024-01-06T08:11:36;-1.10;99.90
10660;DHT22;5378;53.206;13.316;2024-01-06T08:14:26;-1.00;99.90
10660;DHT22;5378;53.206;13.316;2024-01-06T08:17:13;-1.10;99.90
10660;DHT22;5378;53.206;13.316;2024-01-06T08:20:01;-1.10;99.90
10660;DHT22;5378;53.206;13.316;2024-01-06T08:22:49;-1.00;99.90
10660;DHT22;5378;53.206;13.316;2024-01-06T08:25:36;-1.00;99.90
10660;DHT22;5378;53.206;13.316;2024-01-06T08:28:24;-1.10;99.90
10660;DHT22;5378;53.206;13.316;2024-01-06T08:31:12;-1.10;99.90
10660;DHT22;5378;53.206;13.316;2024-01-06T08:33:59;-1.20;99.90
10660;DHT22;5378;53.206;13.316;2024-01-06T08:36:46;-1.20;99.90
10660;DHT22;5378;53.206;13.316;2024-01-06T08:39:33;-1.20;99.90
10660;DHT22;5378;53.206;13.316;2024-01-06T08:42:20;-1.00;99.90
10660;DHT22;5378;53.206;13.316;2024-01-06T08:45:08;-1.00;99.90
10660;DHT22;5378;53.206;13.316;2024-01-06T08:47:56;-1.00;99.90
10660;DHT22;5378;53.206;13.316;2024-01-06T08:50:43;-1.00;99.90
10660;DHT22;5378;53.206;13.316;2024-01-06T08:53:31;-1.10;99.90
10660;DHT22;5378;53.206;13.316;2024-01-06T08:56:18;-1.10;99.90
10660;DHT22;5378;53.206;13.316;2024-01-06T08:59:05;-1.00;99.90
10660;DHT22;5378;53.206;13.316;2024-01-06T09:01:52;-1.10;99.90
10660;DHT22;5378;53.206;13.316;2024-01-06T09:04:40;-1.00;99.90
10660;DHT22;5378;53.206;13.316;2024-01-06T09:07:27;-1.00;99.90
10660;DHT22;5378;53.206;13.316;2024-01-06T09:10:14;-1.00;99.90
10660;DHT22;5378;53.206;13.316;2024-01-06T09:13:01;-0.80;99.90
10660;DHT22;5378;53.206;13.316;2024-01-06T09:15:48;-0.80;99.90
10660;DHT22;5378;53.206;13.316;2024-01-06T09:18:36;-0.80;99.90
10660;DHT22;5378;53.206;13.316;2024-01-06T09:21:24;-0.90;99.90
10660;DHT22;5378;53.206;13.316;2024-01-06T09:24:11;-0.90;99.90
10660;DHT22;5378;53.206;13.316;2024-01-06T09:26:59;-1.00;99.90
10660;DHT22;5378;53.206;13.316;2024-01-06T09:29:46;-0.90;99.90
10660;DHT22;5378;53.206;13.316;2024-01-06T09:32:33;-0.80;99.90
10660;DHT22;5378;53.206;13.316;2024-01-06T09:35:20;-0.80;99.90
10660;DHT22;5378;53.206;13.316;2024-01-06T09:38:09;-0.90;99.90
10660;DHT22;5378;53.206;13.316;2024-01-06T09:40:56;-0.80;99.90
10660;DHT22;5378;53.206;13.316;2024-01-06T09:43:44;-0.70;99.90
10660;DHT22;5378;53.206;13.316;2024-01-06T09:46:31;-1.00;99.90
10660;DHT22;5378;53.206;13.316;2024-01-06T09:49:23;-1.10;99.90
10660;DHT22;5378;53.206;13.316;2024-01-06T09:52:14;-1.00;99.90
10660;DHT22;5378;53.206;13.316;2024-01-06T09:55:05;-1.00;99.90
10660;DHT22;5378;53.206;13.316;2024-01-06T09:57:55;-0.90;99.90
10660;DHT22;5378;53.206;13.316;2024-01-06T10:00:42;-0.90;99.90
10660;DHT22;5378;53.206;13.316;2024-01-06T10:03:30;-1.00;99.90
10660;DHT22;5378;53.206;13.316;2024-01-06T10:06:17;-0.90;99.90
10660;DHT22;5378;53.206;13.316;2024-01-06T10:09:06;-0.80;99.90
10660;DHT22;5378;53.206;13.316;2024-01-06T10:11:56;-0.70;99.90
10660;DHT22;5378;53.206;13.316;2024-01-06T10:14:44;-0.70;99.90
10660;DHT22;5378;53.206;13.316;2024-01-06T10:17:31;-0.70;99.90
10660;DHT22;5378;53.206;13.316;2024-01-06T10:20:18;-0.60;99.90
10660;DHT22;5378;53.206;13.316;2024-01-06T10:23:06;-0.80;99.90
10660;DHT22;5378;53.206;13.316;2024-01-06T10:25:53;-0.80;99.90
10660;DHT22;5378;53.206;13.316;2024-01-06T10:28:43;-0.80;99.90
10660;DHT22;5378;53.206;13.316;2024-01-06T10:31:31;-0.80;99.90
10660;DHT22;5378;53.206;13.316;2024-01-06T10:34:18;-0.70;99.90
10660;DHT22;5378;53.206;13.316;2024-01-06T10:37:05;-0.70;99.90
10660;DHT22;5378;53.206;13.316;2024-01-06T10:40:06;-0.70;99.90
10660;DHT22;5378;53.206;13.316;2024-01-06T10:42:53;-0.70;99.90
10660;DHT22;5378;53.206;13.316;2024-01-06T10:45:44;-0.60;99.90
10660;DHT22;5378;53.206;13.316;2024-01-06T10:48:34;-0.70;99.90
10660;DHT22;5378;53.206;13.316;2024-01-06T10:51:25;-0.70;99.90
10660;DHT22;5378;53.206;13.316;2024-01-06T10:54:14;-0.70;99.90
10660;DHT22;5378;53.206;13.316;2024-01-06T10:57:03;-0.60;99.90
10660;DHT22;5378;53.206;13.316;2024-01-06T10:59:52;-0.70;99.90
10660;DHT22;5378;53.206;13.316;2024-01-06T11:02:41;-0.60;99.90
10660;DHT22;5378;53.206;13.316;2024-01-06T11:05:29;-0.60;99.90
10660;DHT22;5378;53.206;13.316;2024-01-06T11:08:17;-0.60;99.90
10660;DHT22;5378;53.206;13.316;2024-01-06T11:11:05;-0.70;99.90
10660;DHT22;5378;53.206;13.316;2024-01-06T11:13:52;-0.70;99.90
10660;DHT22;5378;53.206;13.316;2024-01-06T11:16:39;-0.60;99.90
10660;DHT22;5378;53.206;13.316;2024-01-06T11:19:44;-0.70;99.90
10660;DHT22;5378;53.206;13.316;2024-01-06T11:22:35;-0.70;99.90
10660;DHT22;5378;53.206;13.316;2024-01-06T11:25:25;-0.60;99.90
10660;DHT22;5378;53.206;13.316;2024-01-06T11:28:13;-0.60;99.90
10660;DHT22;5378;53.206;13.316;2024-01-06T11:31:07;-0.80;99.90
10660;DHT22;5378;53.206;13.316;2024-01-06T11:33:55;-0.70;99.90
10660;DHT22;5378;53.206;13.316;2024-01-06T11:36:45;-0.70;99.90
10660;DHT22;5378;53.206;13.316;2024-01-06T11:39:36;-0.60;99.90
10660;DHT22;5378;53.206;13.316;2024-01-06T11:42:32;-0.50;99.90
10660;DHT22;5378;53.206;13.316;2024-01-06T11:45:20;-0.70;99.90
10660;DHT22;5378;53.206;13.316;2024-01-06T11:48:08;-0.70;99.90
10660;DHT22;5378;53.206;13.316;2024-01-06T11:50:56;-0.60;99.90
10660;DHT22;5378;53.206;13.316;2024-01-06T11:53:46;-0.60;99.90
10660;DHT22;5378;53.206;13.316;2024-01-06T11:56:33;-0.60;99.90
10660;DHT22;5378;53.206;13.316;2024-01-06T11:59:20;-0.60;99.90
10660;DHT22;5378;53.206;13.316;2024-01-06T12:02:11;-0.70;99.90
10660;DHT22;5378;53.206;13.316;2024-01-06T12:04:58;-0.60;99.90
10660;DHT22;5378;53.206;13.316;2024-01-06T12:07:54;-0.50;99.90
10660;DHT22;5378;53.206;13.316;2024-01-06T12:10:43;-0.50;99.90
10660;DHT22;5378;53.206;13.316;2024-01-06T12:13:31;-0.60;99.90
10660;DHT22;5378;53.206;13.316;2024-01-06T12:16:18;-0.70;99.90
10660;DHT22;5378;53.206;13.316;2024-01-06T12:19:05;-0.70;99.90
10660;DHT22;5378;53.206;13.316;2024-01-06T12:21:52;-0.70;99.90
10660;DHT22;5378;53.206;13.316;2024-01-06T12:24:39;-0.70;99.90
10660;DHT22;5378;53.206;13.316;2024-01-06T12:27:28;-0.80;99.90
10660;DHT22;5378;53.206;13.316;2024-01-06T12:30:16;-0.70;99.90
10660;DHT22;5378;53.206;13.316;2024-01-06T12:33:04;-0.80;99.90
10660;DHT22;5378;53.206;13.316;2024-01-06T12:35:52;-0.80;99.90
10660;DHT22;5378;53.206;13.316;2024-01-06T12:38:42;-0.80;99.90
10660;DHT22;5378;53.206;13.316;2024-01-06T12:41:29;-0.70;99.90
10660;DHT22;5378;53.206;13.316;2024-01-06T12:44:17;-0.70;99.90
10660;DHT22;5378;53.206;13.316;2024-01-06T12:47:05;-0.70;99.90
10660;DHT22;5378;53.206;13.316;2024-01-06T12:49:52;-0.80;99.90
10660;DHT22;5378;53.206;13.316;2024-01-06T12:52:39;-0.80;99.90
10660;DHT22;5378;53.206;13.316;2024-01-06T12:55:25;-1.00;99.90
10660;DHT22;5378;53.206;13.316;2024-01-06T12:58:12;-0.90;99.90
10660;DHT22;5378;53.206;13.316;2024-01-06T13:01:01;-0.70;99.90
10660;DHT22;5378;53.206;13.316;2024-01-06T13:03:48;-0.70;99.90
10660;DHT22;5378;53.206;13.316;2024-01-06T13:06:35;-0.70;99.90
10660;DHT22;5378;53.206;13.316;2024-01-06T13:09:22;-0.80;99.90
10660;DHT22;5378;53.206;13.316;2024-01-06T13:12:10;-0.70;99.90
10660;DHT22;5378;53.206;13.316;2024-01-06T13:14:57;-0.70;99.90
10660;DHT22;5378;53.206;13.316;2024-01-06T13:17:46;-0.70;99.90
10660;DHT22;5378;53.206;13.316;2024-01-06T13:20:34;-0.70;99.90
10660;DHT22;5378;53.206;13.316;2024-01-06T13:23:23;-0.70;99.90
10660;DHT22;5378;53.206;13.316;2024-01-06T13:26:10;-0.80;99.90
10660;DHT22;5378;53.206;13.316;2024-01-06T13:28:57;-0.80;99.90
10660;DHT22;5378;53.206;13.316;2024-01-06T13:31:44;-0.70;99.90
10660;DHT22;5378;53.206;13.316;2024-01-06T13:34:32;-0.70;99.90
10660;DHT22;5378;53.206;13.316;2024-01-06T13:37:19;-0.70;99.90
10660;DHT22;5378;53.206;13.316;2024-01-06T13:40:09;-0.70;99.90
10660;DHT22;5378;53.206;13.316;2024-01-06T13:42:57;-0.70;99.90
10660;DHT22;5378;53.206;13.316;2024-01-06T13:45:45;-0.80;99.90
10660;DHT22;5378;53.206;13.316;2024-01-06T13:48:33;-0.90;99.90
10660;DHT22;5378;53.206;13.316;2024-01-06T13:51:23;-0.90;99.90
10660;DHT22;5378;53.206;13.316;2024-01-06T13:54:11;-0.90;99.90
10660;DHT22;5378;53.206;13.316;2024-01-06T13:56:58;-0.90;99.90
10660;DHT22;5378;53.206;13.316;2024-01-06T13:59:45;-0.90;99.90
10660;DHT22;5378;53.206;13.316;2024-01-06T14:02:32;-0.80;99.90
10660;DHT22;5378;53.206;13.316;2024-01-06T14:05:19;-0.90;99.90
10660;DHT22;5378;53.206;13.316;2024-01-06T14:08:08;-0.90;99.90
10660;DHT22;5378;53.206;13.316;2024-01-06T14:10:56;-0.90;99.90
10660;DHT22;5378;53.206;13.316;2024-01-06T14:13:43;-0.90;99.90
10660;DHT22;5378;53.206;13.316;2024-01-06T14:16:34;-0.90;99.90
10660;DHT22;5378;53.206;13.316;2024-01-06T14:19:21;-0.90;99.90
10660;DHT22;5378;53.206;13.316;2024-01-06T14:22:09;-0.80;99.90
10660;DHT22;5378;53.206;13.316;2024-01-06T14:24:57;-0.90;99.90
10660;DHT22;5378;53.206;13.316;2024-01-06T14:27:46;-0.90;99.90
10660;DHT22;5378;53.206;13.316;2024-01-06T14:30:34;-0.90;99.90
10660;DHT22;5378;53.206;13.316;2024-01-06T14:33:21;-0.90;99.90
10660;DHT22;5378;53.206;13.316;2024-01-06T14:36:08;-0.80;99.90
10660;DHT22;5378;53.206;13.316;2024-01-06T14:38:55;-0.70;99.90
10660;DHT22;5378;53.206;13.316;2024-01-06T14:41:43;-0.80;99.90
10660;DHT22;5378;53.206;13.316;2024-01-06T14:44:30;-0.80;99.90
10660;DHT22;5378;53.206;13.316;2024-01-06T14:47:18;-0.90;99.90
10660;DHT22;5378;53.206;13.316;2024-01-06T14:50:06;-0.90;99.90
10660;DHT22;5378;53.206;13.316;2024-01-06T14:52:53;-0.80;99.90
10660;DHT22;5378;53.206;13.316;2024-01-06T14:55:40;-0.80;99.90
10660;DHT22;5378;53.206;13.316;2024-01-06T14:58:29;-0.80;99.90
10660;DHT22;5378;53.206;13.316;2024-01-06T15:01:16;-0.70;99.90
10660;DHT22;5378;53.206;13.316;2024-01-06T15:04:03;-0.80;99.90
10660;DHT22;5378;53.206;13.316;2024-01-06T15:06:50;-0.90;99.90
10660;DHT22;5378;53.206;13.316;2024-01-06T15:09:38;-0.80;99.90
10660;DHT22;5378;53.206;13.316;2024-01-06T15:12:26;-0.80;99.90
10660;DHT22;5378;53.206;13.316;2024-01-06T15:15:15;-0.90;99.90
10660;DHT22;5378;53.206;13.316;2024-01-06T15:18:02;-0.80;99.90
10660;DHT22;5378;53.206;13.316;2024-01-06T15:20:50;-0.70;99.90
10660;DHT22;5378;53.206;13.316;2024-01-06T15:23:37;-0.70;99.90
10660;DHT22;5378;53.206;13.316;2024-01-06T15:26:24;-0.80;99.90
10660;DHT22;5378;53.206;13.316;2024-01-06T15:29:11;-0.80;99.90
10660;DHT22;5378;53.206;13.316;2024-01-06T15:32:00;-0.90;99.90
10660;DHT22;5378;53.206;13.316;2024-01-06T15:34:47;-0.80;99.90
10660;DHT22;5378;53.206;13.316;2024-01-06T15:37:34;-0.80;99.90
10660;DHT22;5378;53.206;13.316;2024-01-06T15:40:21;-0.90;99.90
10660;DHT22;5378;53.206;13.316;2024-01-06T15:43:08;-0.80;99.90
10660;DHT22;5378;53.206;13.316;2024-01-06T15:45:55;-0.80;99.90
10660;DHT22;5378;53.206;13.316;2024-01-06T15:48:44;-0.80;99.90
10660;DHT22;5378;53.206;13.316;2024-01-06T15:51:31;-0.90;99.90
10660;DHT22;5378;53.206;13.316;2024-01-06T15:54:18;-0.80;99.90
10660;DHT22;5378;53.206;13.316;2024-01-06T15:57:06;-0.70;99.90
10660;DHT22;5378;53.206;13.316;2024-01-06T15:59:56;-0.60;99.90
10660;DHT22;5378;53.206;13.316;2024-01-06T16:02:43;-0.70;99.90
10660;DHT22;5378;53.206;13.316;2024-01-06T16:05:32;-0.80;99.90
10660;DHT22;5378;53.206;13.316;2024-01-06T16:08:19;-0.80;99.90
10660;DHT22;5378;53.206;13.316;2024-01-06T16:11:06;-0.70;99.90
10660;DHT22;5378;53.206;13.316;2024-01-06T16:13:53;-0.70;99.90
10660;DHT22;5378;53.206;13.316;2024-01-06T16:16:40;-0.80;99.90
10660;DHT22;5378;53.206;13.316;2024-01-06T16:19:28;-0.70;99.90
10660;DHT22;5378;53.206;13.316;2024-01-06T16:22:16;-0.70;99.90
10660;DHT22;5378;53.206;13.316;2024-01-06T16:25:04;-0.80;99.90
10660;DHT22;5378;53.206;13.316;2024-01-06T16:27:52;-0.80;99.90
10660;DHT22;5378;53.206;13.316;2024-01-06T16:30:39;-0.80;99.90
10660;DHT22;5378;53.206;13.316;2024-01-06T16:33:27;-0.80;99.90
10660;DHT22;5378;53.206;13.316;2024-01-06T16:36:15;-0.80;99.90
10660;DHT22;5378;53.206;13.316;2024-01-06T16:39:03;-0.70;99.90
10660;DHT22;5378;53.206;13.316;2024-01-06T16:41:51;-0.70;99.90
10660;DHT22;5378;53.206;13.316;2024-01-06T16:44:38;-0.70;99.90
10660;DHT22;5378;53.206;13.316;2024-01-06T16:47:25;-0.70;99.90
10660;DHT22;5378;53.206;13.316;2024-01-06T16:50:12;-0.70;99.90
10660;DHT22;5378;53.206;13.316;2024-01-06T16:52:59;-0.70;99.90
10660;DHT22;5378;53.206;13.316;2024-01-06T16:55:48;-0.70;99.90
10660;DHT22;5378;53.206;13.316;2024-01-06T16:58:35;-0.80;99.90
10660;DHT22;5378;53.206;13.316;2024-01-06T17:01:23;-0.70;99.90
10660;DHT22;5378;53.206;13.316;2024-01-06T17:04:10;-0.70;99.90
10660;DHT22;5378;53.206;13.316;2024-01-06T17:06:58;-0.70;99.90
10660;DHT22;5378;53.206;13.316;2024-01-06T17:09:47;-0.70;99.90
10660;DHT22;5378;53.206;13.316;2024-01-06T17:12:38;-0.60;99.90
10660;DHT22;5378;53.206;13.316;2024-01-06T17:15:25;-0.70;99.90
10660;DHT22;5378;53.206;13.316;2024-01-06T17:18:14;-0.70;99.90
10660;DHT22;5378;53.206;13.316;2024-01-06T17:21:02;-0.70;99.90
10660;DHT22;5378;53.206;13.316;2024-01-06T17:23:49;-0.60;99.90
10660;DHT22;5378;53.206;13.316;2024-01-06T17:26:37;-0.70;99.90
10660;DHT22;5378;53.206;13.316;2024-01-06T17:29:25;-0.70;99.90
10660;DHT22;5378;53.206;13.316;2024-01-06T17:32:12;-0.70;99.90
10660;DHT22;5378;53.206;13.316;2024-01-06T17:35:00;-0.70;99.90
10660;DHT22;5378;53.206;13.316;2024-01-06T17:37:47;-0.70;99.90